SBTA

Details ICAO SBTA
Name BASE DE AVIACAO DE TAUBATE
Region Brazil
Timezone America/Sao_Paulo (UTC-3.0)
Plans Departing 8
Arriving 0
Stats Elevation 1,908 ft / 582 m (AMSL)
Location -23.040133° -45.516010°
Runways 1
Magnetic Variation 21.933° W
Sunrise 2018-05-23 09:33:07 UTC / 2018-05-23 06:33:07 Local
Sunset 2018-05-23 20:27:24 UTC / 2018-05-23 17:27:24 Local
Advertisement - Login to hide

Runways

ID Width Length Bearing (true) Bearing (mag) Surface Threshold Offset Overrun Length
08 98 ft / 30 m 4,900 ft / 1,494 m 56.28° 78.21° Asphalt 1,275 ft / 389 m 200 ft / 61 m
26 98 ft / 30 m 4,900 ft / 1,494 m 236.27° 258.20° Asphalt 0 ft / 0 m 200 ft / 61 m

Map

Weather


0- 5 10 15 20 25 30 35+ Temperature / ° C

Clouds and Precipitation
Forecast for 2018-05-23 12:00 UTC. Updated 2 hours ago

Ground ~20,000 ft ~40,000 ft Winds

METAR

SBTA 231200Z 00000KT 7000 FEW012 15/10 Q1023

TAF

Not found

Frequencies

Ground 121.70 MHz GND
Tower 119.90 MHz TWR
Warning: Do not use this data for real-world aviation or navigation. No guarantee of current accuracy is given.